createdAt,value
2022-10-01T00:00:56.722Z,11.43
2022-10-01T00:04:53.674Z,11.47
2022-10-01T00:08:49.607Z,11.48
2022-10-01T00:12:45.598Z,11.46
2022-10-01T00:16:44.652Z,11.46
2022-10-01T00:20:45.620Z,11.43
2022-10-01T00:24:51.445Z,11.40
2022-10-01T00:28:49.401Z,11.41
2022-10-01T00:37:00.201Z,11.41
2022-10-01T00:40:57.138Z,11.36
2022-10-01T00:44:53.057Z,11.33
2022-10-01T00:48:48.906Z,11.27
2022-10-01T00:52:52.734Z,11.26
2022-10-01T00:56:48.729Z,11.24
2022-10-01T01:05:15.388Z,11.18
2022-10-01T01:09:12.125Z,11.15
2022-10-01T01:13:12.324Z,11.12
2022-10-01T01:17:08.876Z,11.07
2022-10-01T01:21:19.825Z,11.08
2022-10-01T01:29:43.346Z,11.12
2022-10-01T01:33:38.988Z,11.14
2022-10-01T01:37:48.202Z,11.14
2022-10-01T01:41:44.894Z,11.07
2022-10-01T01:50:12.720Z,10.98
2022-10-01T01:54:16.547Z,10.93
2022-10-01T01:58:17.401Z,10.91
2022-10-01T02:06:34.096Z,10.82
2022-10-01T02:10:34.915Z,10.75
2022-10-01T02:14:45.694Z,10.67
2022-10-01T02:19:04.483Z,10.67
2022-10-01T02:23:04.503Z,10.63
2022-10-01T02:27:11.104Z,10.59
2022-10-01T02:31:11.152Z,10.61
2022-10-01T02:35:10.941Z,10.60
2022-10-01T02:39:19.532Z,10.54
2022-10-01T02:47:35.318Z,10.60
2022-10-01T02:51:35.623Z,10.53
2022-10-01T02:55:40.341Z,10.42
2022-10-01T02:59:51.639Z,10.37
2022-10-01T03:03:47.680Z,10.36
2022-10-01T03:12:14.086Z,10.32
2022-10-01T03:16:32.647Z,10.28
2022-10-01T03:24:42.483Z,10.27
2022-10-01T03:28:42.292Z,10.28
2022-10-01T03:32:42.270Z,10.26
2022-10-01T03:41:08.144Z,10.17
2022-10-01T03:45:04.847Z,10.12
2022-10-01T03:49:10.893Z,10.11
2022-10-01T03:57:23.762Z,9.89
2022-10-01T04:01:15.598Z,9.80
2022-10-01T04:09:25.533Z,9.72
2022-10-01T04:13:28.173Z,9.68
2022-10-01T04:17:42.700Z,9.61
2022-10-01T04:21:42.839Z,9.63
2022-10-01T04:25:38.738Z,9.59
2022-10-01T04:29:40.355Z,9.59
2022-10-01T04:33:36.573Z,9.59
2022-10-01T04:37:32.415Z,9.60
2022-10-01T04:41:29.396Z,9.62
2022-10-01T04:45:05.290Z,9.59
2022-10-01T04:48:37.367Z,9.61
2022-10-01T04:52:09.322Z,9.65
2022-10-01T04:55:41.390Z,9.65
2022-10-01T04:59:41.236Z,9.79
2022-10-01T05:03:37.090Z,9.84
2022-10-01T05:07:32.995Z,9.83
2022-10-01T05:11:28.832Z,9.85
2022-10-01T05:15:24.689Z,9.90
2022-10-01T05:19:20.609Z,9.97
2022-10-01T05:23:17.387Z,9.99
2022-10-01T05:27:13.457Z,9.97
2022-10-01T05:31:10.343Z,9.91
2022-10-01T05:35:06.168Z,9.92
2022-10-01T05:39:21.356Z,9.96
2022-10-01T05:43:16.169Z,10.03
2022-10-01T05:47:24.719Z,10.10
2022-10-01T05:51:24.781Z,10.14
2022-10-01T05:55:24.472Z,10.17
2022-10-01T06:03:50.679Z,10.16
2022-10-01T06:07:47.408Z,10.21
2022-10-01T06:11:48.283Z,10.29
2022-10-01T06:15:48.116Z,10.25
2022-10-01T06:19:50.167Z,10.23
2022-10-01T06:28:07.839Z,10.41
2022-10-01T06:32:08.607Z,10.45
2022-10-01T06:36:05.631Z,10.56
2022-10-01T06:44:18.347Z,10.72
2022-10-01T06:48:20.082Z,10.83
2022-10-01T06:52:21.011Z,10.87
2022-10-01T06:56:24.819Z,10.92
2022-10-01T07:00:02.279Z,10.98
2022-10-01T07:03:35.848Z,11.05
2022-10-01T07:07:07.974Z,11.06
2022-10-01T07:10:45.829Z,11.12
2022-10-01T07:14:41.767Z,11.19
2022-10-01T07:18:37.577Z,11.28
2022-10-01T07:22:33.589Z,11.39
2022-10-01T07:26:34.279Z,11.41
2022-10-01T07:30:21.212Z,11.48
2022-10-01T07:34:21.051Z,11.54
2022-10-01T07:38:23.427Z,11.67
2022-10-01T07:42:19.225Z,11.81
2022-10-01T07:45:55.417Z,11.91
2022-10-01T07:49:42.199Z,11.94
2022-10-01T07:57:03.313Z,12.05
2022-10-01T08:00:39.225Z,12.08
2022-10-01T08:04:12.311Z,12.18
2022-10-01T08:07:56.297Z,12.25
2022-10-01T08:11:28.356Z,12.36
2022-10-01T08:15:28.034Z,12.47
2022-10-01T08:19:25.063Z,12.61
2022-10-01T08:23:20.737Z,12.74
2022-10-01T08:27:29.933Z,12.86
2022-10-01T08:31:29.131Z,12.97
2022-10-01T08:35:28.977Z,13.18
2022-10-01T08:39:26.420Z,13.39
2022-10-01T08:43:25.949Z,13.50
2022-10-01T08:47:21.793Z,13.59
2022-10-01T08:51:31.864Z,13.70
2022-10-01T08:55:32.507Z,13.74
2022-10-01T08:59:29.584Z,13.74
2022-10-01T09:03:29.262Z,13.76
2022-10-01T09:07:26.256Z,13.76
2022-10-01T09:11:25.100Z,13.76
2022-10-01T09:15:28.137Z,13.80
2022-10-01T09:19:27.853Z,13.81
2022-10-01T09:23:33.824Z,13.83
2022-10-01T09:27:37.265Z,13.85
2022-10-01T09:31:38.612Z,13.96
2022-10-01T09:35:55.413Z,14.00
2022-10-01T09:39:52.685Z,14.09
2022-10-01T09:43:49.326Z,14.18
2022-10-01T09:47:51.784Z,14.26
2022-10-01T09:51:51.745Z,14.37
2022-10-01T09:55:52.779Z,14.51
2022-10-01T09:59:29.659Z,14.68
2022-10-01T10:03:05.930Z,14.79
2022-10-01T10:06:41.706Z,14.82
2022-10-01T10:11:52.854Z,14.95
2022-10-01T10:15:52.530Z,15.01
2022-10-01T10:19:48.403Z,15.08
2022-10-01T10:23:55.261Z,15.07
2022-10-01T10:28:00.818Z,15.10
2022-10-01T10:36:21.300Z,14.98
2022-10-01T10:40:22.760Z,15.07
2022-10-01T10:44:24.075Z,15.14
2022-10-01T10:48:23.442Z,15.27
2022-10-01T10:52:55.991Z,15.45
2022-10-01T10:57:02.637Z,15.47
2022-10-01T11:01:02.531Z,15.38
2022-10-01T11:05:06.168Z,15.31
2022-10-01T11:09:03.164Z,15.32
2022-10-01T11:17:10.003Z,15.29
2022-10-01T11:21:06.704Z,15.42
2022-10-01T11:25:02.719Z,15.44
2022-10-01T11:29:02.290Z,15.57
2022-10-01T11:33:25.530Z,15.78
2022-10-01T11:37:30.576Z,15.83
2022-10-01T11:41:32.650Z,15.80
2022-10-01T11:45:33.410Z,15.77
2022-10-01T11:49:40.316Z,15.84
2022-10-01T11:53:47.141Z,15.92
2022-10-01T11:57:26.879Z,15.85
2022-10-01T12:01:06.156Z,15.82
2022-10-01T12:05:05.308Z,15.73
2022-10-01T12:08:37.156Z,15.67
2022-10-01T12:12:11.559Z,15.66
2022-10-01T12:15:50.217Z,15.68
2022-10-01T12:19:22.263Z,15.63
2022-10-01T12:22:44.251Z,15.65
2022-10-01T12:26:16.572Z,15.60
2022-10-01T12:29:54.124Z,15.51
2022-10-01T12:33:30.139Z,15.55
2022-10-01T12:37:05.180Z,15.57
2022-10-01T12:41:13.029Z,15.69
2022-10-01T12:45:18.762Z,15.71
2022-10-01T12:49:11.816Z,15.71
2022-10-01T12:52:51.763Z,15.77
2022-10-01T12:56:34.119Z,15.82
2022-10-01T13:00:10.799Z,15.79
2022-10-01T13:04:06.724Z,15.75
2022-10-01T13:07:59.663Z,15.66
2022-10-01T13:11:31.740Z,15.59
2022-10-01T13:15:09.675Z,15.53
2022-10-01T13:18:39.701Z,15.46
2022-10-01T13:22:17.657Z,15.38
2022-10-01T13:25:49.758Z,15.35
2022-10-01T13:29:21.720Z,15.21
2022-10-01T13:32:57.761Z,15.21
2022-10-01T13:36:29.643Z,15.22
2022-10-01T13:40:18.730Z,15.18
2022-10-01T13:43:50.648Z,15.21
2022-10-01T13:47:22.754Z,15.18
2022-10-01T13:50:54.655Z,15.12
2022-10-01T13:54:35.752Z,15.07
2022-10-01T13:58:07.669Z,15.03
2022-10-01T14:01:39.786Z,15.03
2022-10-01T14:05:11.637Z,14.92
2022-10-01T14:08:43.700Z,14.81
2022-10-01T14:12:16.631Z,14.75
2022-10-01T14:15:55.776Z,14.74
2022-10-01T14:19:29.659Z,14.73
2022-10-01T14:23:03.815Z,14.75
2022-10-01T14:26:39.635Z,14.73
2022-10-01T14:30:36.700Z,14.78
2022-10-01T14:34:35.431Z,14.74
2022-10-01T14:38:52.908Z,14.76
2022-10-01T14:42:53.244Z,14.80
2022-10-01T14:46:44.234Z,14.84
2022-10-01T14:50:40.362Z,14.88
2022-10-01T14:54:36.280Z,14.97
2022-10-01T14:58:37.165Z,14.96
2022-10-01T15:02:56.409Z,14.98
2022-10-01T15:06:31.318Z,14.92
2022-10-01T15:10:06.271Z,14.88
2022-10-01T15:13:43.217Z,14.81
2022-10-01T15:17:17.377Z,14.76
2022-10-01T15:20:47.223Z,14.71
2022-10-01T15:24:21.333Z,14.69
2022-10-01T15:28:00.285Z,14.66
2022-10-01T15:31:32.466Z,14.65
2022-10-01T15:35:04.290Z,14.62
2022-10-01T15:38:44.335Z,14.53
2022-10-01T15:42:17.307Z,14.46
2022-10-01T15:45:54.346Z,14.40
2022-10-01T15:49:32.212Z,14.34
2022-10-01T15:53:12.320Z,14.31
2022-10-01T15:56:36.403Z,14.25
2022-10-01T16:00:07.389Z,14.16
2022-10-01T16:03:57.216Z,14.09
2022-10-01T16:07:31.313Z,13.99
2022-10-01T16:11:11.186Z,13.92
2022-10-01T16:14:44.312Z,13.83
2022-10-01T16:18:19.219Z,13.76
2022-10-01T16:22:10.842Z,13.73
2022-10-01T16:25:52.678Z,13.57
2022-10-01T16:29:24.765Z,13.50
2022-10-01T16:33:00.678Z,13.36
2022-10-01T16:36:35.121Z,13.34
2022-10-01T16:40:19.705Z,13.25
2022-10-01T16:43:55.784Z,13.14
2022-10-01T16:47:31.640Z,13.12
2022-10-01T16:51:07.955Z,13.07
2022-10-01T16:54:35.646Z,13.02
2022-10-01T16:58:11.827Z,12.97
2022-10-01T17:01:40.654Z,12.87
2022-10-01T17:05:16.731Z,12.84
2022-10-01T17:08:48.644Z,12.79
2022-10-01T17:12:23.761Z,12.71
2022-10-01T17:15:49.666Z,12.68
2022-10-01T17:19:21.698Z,12.64
2022-10-01T17:22:53.670Z,12.59
2022-10-01T17:26:16.744Z,12.52
2022-10-01T17:29:52.690Z,12.50
2022-10-01T17:33:29.764Z,12.45
2022-10-01T17:37:02.654Z,12.47
2022-10-01T17:40:38.964Z,12.46
2022-10-01T17:44:15.731Z,12.43
2022-10-01T17:47:51.719Z,12.41
2022-10-01T17:51:31.715Z,12.41
2022-10-01T17:55:35.088Z,12.42
2022-10-01T17:59:03.994Z,12.42
2022-10-01T18:02:42.838Z,12.42
2022-10-01T18:06:15.996Z,12.41
2022-10-01T18:10:12.024Z,12.47
2022-10-01T18:14:17.800Z,12.51
2022-10-01T18:22:13.940Z,12.55
2022-10-01T18:29:48.660Z,12.59
2022-10-01T18:33:24.475Z,12.42
2022-10-01T18:37:04.626Z,12.26
2022-10-01T18:40:40.447Z,12.13
2022-10-01T18:53:28.232Z,11.64
2022-10-01T19:10:50.448Z,11.27
2022-10-01T19:19:19.607Z,11.16
2022-10-01T19:23:28.331Z,11.14
2022-10-01T19:27:33.401Z,11.12
2022-10-01T19:31:44.010Z,11.06
2022-10-01T19:35:41.162Z,11.02
2022-10-01T19:39:42.947Z,10.96
2022-10-01T19:43:44.079Z,10.88
2022-10-01T19:47:52.804Z,10.83
2022-10-01T19:51:53.315Z,10.83
2022-10-01T19:56:16.556Z,10.83
2022-10-01T20:04:41.520Z,10.80
2022-10-01T20:13:05.990Z,10.63
2022-10-01T20:21:34.988Z,10.69
2022-10-01T20:25:32.406Z,10.69
2022-10-01T20:29:28.390Z,10.63
2022-10-01T20:33:28.837Z,10.63
2022-10-01T20:37:40.934Z,10.67
2022-10-01T20:41:45.851Z,10.64
2022-10-01T20:50:14.663Z,10.54
2022-10-01T21:02:14.382Z,10.45
2022-10-01T21:07:28.252Z,10.40
2022-10-01T21:11:26.916Z,10.38
2022-10-01T21:15:31.338Z,10.41
2022-10-01T21:19:32.694Z,10.42
2022-10-01T21:23:53.045Z,10.45
2022-10-01T21:28:05.638Z,10.41
2022-10-01T21:31:56.899Z,10.38
2022-10-01T21:35:57.389Z,10.35
2022-10-01T21:39:53.811Z,10.34
2022-10-01T21:44:08.847Z,10.37
2022-10-01T21:53:19.797Z,10.34
2022-10-01T21:57:10.586Z,10.34
2022-10-01T22:05:25.561Z,10.31
2022-10-01T22:09:12.152Z,10.30
2022-10-01T22:13:18.901Z,10.32
2022-10-01T22:17:34.519Z,10.33
2022-10-01T22:26:10.093Z,10.33
2022-10-01T22:34:23.565Z,10.30
2022-10-01T22:51:35.450Z,10.36
2022-10-01T22:55:35.286Z,10.34
2022-10-01T22:59:35.119Z,10.36
2022-10-01T23:03:42.658Z,10.38
2022-10-01T23:07:46.654Z,10.35
2022-10-01T23:15:55.517Z,10.29
2022-10-01T23:19:54.334Z,10.27
2022-10-01T23:23:53.416Z,10.22
2022-10-01T23:27:26.256Z,10.16
2022-10-01T23:30:58.330Z,10.15
2022-10-01T23:34:30.267Z,10.15
2022-10-01T23:38:17.311Z,10.17
2022-10-01T23:42:14.151Z,10.22
2022-10-01T23:46:11.253Z,10.24
2022-10-01T23:50:23.988Z,10.27
2022-10-01T23:54:20.910Z,10.30
2022-10-01T23:58:20.693Z,10.36
